createdAt,value
2019-05-30T00:04:52.500Z,8.93
2019-05-30T00:10:00.681Z,8.75
2019-05-30T00:15:10.484Z,9.08
2019-05-30T00:20:19.083Z,9.40
2019-05-30T00:25:27.377Z,8.68
2019-05-30T00:30:36.357Z,9.45
2019-05-30T00:35:45.155Z,8.73
2019-05-30T00:40:52.950Z,13.18
2019-05-30T00:46:00.692Z,9.68
2019-05-30T00:51:08.624Z,10.38
2019-05-30T00:56:17.905Z,10.00
2019-05-30T01:01:25.847Z,8.93
2019-05-30T01:06:33.816Z,9.08
2019-05-30T01:11:42.404Z,10.30
2019-05-30T01:16:52.147Z,9.05
2019-05-30T01:22:01.282Z,11.28
2019-05-30T01:27:09.954Z,8.48
2019-05-30T01:32:19.012Z,9.70
2019-05-30T01:37:27.891Z,9.20
2019-05-30T01:42:36.775Z,8.00
2019-05-30T01:47:44.867Z,8.93
2019-05-30T01:52:52.846Z,8.95
2019-05-30T01:58:01.582Z,9.05
2019-05-30T02:03:11.122Z,8.35
2019-05-30T02:08:20.938Z,7.53
2019-05-30T02:13:29.560Z,8.93
2019-05-30T02:18:37.495Z,7.97
2019-05-30T02:23:45.402Z,9.23
2019-05-30T02:28:54.414Z,8.23
2019-05-30T02:34:05.233Z,7.70
2019-05-30T02:39:14.740Z,8.83
2019-05-30T02:44:23.336Z,8.13
2019-05-30T02:49:31.571Z,8.20
2019-05-30T02:54:40.177Z,7.65
2019-05-30T02:59:48.481Z,8.08
2019-05-30T03:04:56.871Z,8.23
2019-05-30T03:10:07.543Z,8.20
2019-05-30T03:15:16.425Z,8.08
2019-05-30T03:20:25.618Z,7.87
2019-05-30T03:25:33.802Z,7.70
2019-05-30T03:30:41.960Z,7.90
2019-05-30T03:35:50.030Z,7.58
2019-05-30T03:40:58.608Z,6.90
2019-05-30T03:46:10.427Z,7.97
2019-05-30T03:51:20.194Z,13.43
2019-05-30T04:01:38.348Z,14.43
2019-05-30T04:06:49.144Z,10.30
2019-05-30T04:11:59.120Z,9.83
2019-05-30T04:17:08.402Z,6.40
2019-05-30T04:22:17.128Z,7.05
2019-05-30T04:27:24.807Z,6.17
2019-05-30T04:32:33.268Z,6.95
2019-05-30T04:37:41.413Z,6.30
2019-05-30T04:42:49.458Z,6.20
2019-05-30T04:47:57.237Z,6.40
2019-05-30T04:53:06.776Z,6.40
2019-05-30T04:58:15.384Z,6.00
2019-05-30T05:03:44.136Z,5.90
2019-05-30T05:08:33.681Z,6.33
2019-05-30T05:13:41.995Z,6.20
2019-05-30T05:18:50.740Z,5.80
2019-05-30T05:23:58.674Z,5.67
2019-05-30T05:29:07.745Z,7.03
2019-05-30T05:34:16.560Z,7.72
2019-05-30T05:39:25.773Z,6.40
2019-05-30T05:44:34.860Z,5.78
2019-05-30T05:49:42.996Z,5.45
2019-05-30T05:54:51.184Z,5.70
2019-05-30T05:59:59.754Z,5.87
2019-05-30T06:05:08.788Z,6.05
2019-05-30T06:10:17.504Z,5.60
2019-05-30T06:15:25.419Z,6.00
2019-05-30T06:20:33.738Z,6.15
2019-05-30T06:25:41.571Z,5.97
2019-05-30T06:30:49.689Z,5.80
2019-05-30T06:35:59.033Z,5.92
2019-05-30T06:41:07.485Z,6.33
2019-05-30T06:46:17.185Z,7.75
2019-05-30T06:51:26.843Z,6.35
2019-05-30T06:56:34.850Z,6.37
2019-05-30T07:07:06.149Z,5.55
2019-05-30T07:12:14.326Z,4.75
2019-05-30T07:17:23.229Z,3.90
2019-05-30T07:22:31.854Z,2.70
2019-05-30T07:27:39.852Z,2.35
2019-05-30T07:32:47.855Z,2.40
2019-05-30T07:37:55.843Z,2.62
2019-05-30T07:43:03.718Z,2.60
2019-05-30T07:48:11.588Z,2.62
2019-05-30T07:53:19.847Z,2.58
2019-05-30T07:58:28.848Z,3.60
2019-05-30T08:03:36.958Z,3.02
2019-05-30T08:08:45.021Z,3.47
2019-05-30T08:13:52.951Z,2.70
2019-05-30T08:19:01.013Z,2.77
2019-05-30T08:24:09.303Z,2.35
2019-05-30T08:29:17.493Z,2.47
2019-05-30T08:34:25.360Z,2.80
2019-05-30T08:39:33.433Z,3.20
2019-05-30T08:44:41.516Z,2.90
2019-05-30T08:49:49.571Z,3.60
2019-05-30T08:54:58.505Z,3.15
2019-05-30T09:00:08.401Z,3.05
2019-05-30T09:05:16.789Z,3.08
2019-05-30T09:10:25.254Z,3.10
2019-05-30T09:15:33.589Z,2.90
2019-05-30T09:20:41.950Z,3.17
2019-05-30T09:26:46.895Z,3.10
2019-05-30T09:31:53.412Z,3.50
2019-05-30T09:37:01.356Z,3.22
2019-05-30T09:42:09.486Z,3.77
2019-05-30T09:47:17.467Z,3.98
2019-05-30T09:52:26.921Z,4.10
2019-05-30T09:57:35.098Z,4.30
2019-05-30T10:02:44.865Z,4.17
2019-05-30T10:18:15.866Z,5.42
2019-05-30T10:23:25.299Z,5.43
2019-05-30T10:28:33.650Z,3.83
2019-05-30T10:33:41.780Z,4.17
2019-05-30T10:38:50.413Z,4.80
2019-05-30T10:43:59.307Z,4.90
2019-05-30T10:49:07.422Z,4.22
2019-05-30T10:59:33.225Z,3.85
2019-05-30T11:04:41.327Z,3.58
2019-05-30T11:09:52.722Z,4.50
2019-05-30T11:15:01.064Z,6.60
2019-05-30T11:20:29.258Z,5.03
2019-05-30T11:25:37.503Z,5.92
2019-05-30T11:30:45.771Z,4.75
2019-05-30T11:35:55.047Z,5.00
2019-05-30T11:41:03.247Z,7.72
2019-05-30T11:46:11.266Z,7.83
2019-05-30T11:51:19.548Z,6.90
2019-05-30T11:56:27.948Z,4.00
2019-05-30T12:01:36.253Z,2.47
2019-05-30T12:06:44.230Z,1.60
2019-05-30T12:11:53.083Z,1.62
2019-05-30T12:17:01.504Z,1.80
2019-05-30T12:22:10.265Z,2.08
2019-05-30T12:27:18.768Z,2.22
2019-05-30T12:32:26.971Z,1.62
2019-05-30T12:37:34.901Z,2.42
2019-05-30T12:42:42.982Z,1.90
2019-05-30T12:47:50.877Z,1.75
2019-05-30T12:53:00.419Z,1.40
2019-05-30T12:58:08.194Z,1.40
2019-05-30T13:03:16.177Z,1.87
2019-05-30T13:08:23.828Z,2.30
2019-05-30T13:13:32.256Z,2.05
2019-05-30T13:18:40.160Z,1.85
2019-05-30T13:23:48.240Z,1.72
2019-05-30T13:28:56.272Z,1.62
2019-05-30T13:34:04.959Z,1.87
2019-05-30T13:39:13.320Z,2.52
2019-05-30T13:44:21.520Z,2.00
2019-05-30T13:49:29.713Z,2.20
2019-05-30T13:54:38.108Z,1.90
2019-05-30T13:59:46.186Z,1.60
2019-05-30T14:04:55.102Z,1.87
2019-05-30T14:10:02.918Z,1.80
2019-05-30T14:15:14.357Z,2.15
2019-05-30T14:20:23.919Z,2.25
2019-05-30T14:25:32.939Z,2.35
2019-05-30T14:30:41.097Z,2.72
2019-05-30T14:35:49.303Z,2.30
2019-05-30T14:40:58.852Z,2.60
2019-05-30T14:52:00.910Z,2.70
2019-05-30T14:57:08.913Z,2.62
2019-05-30T15:02:17.538Z,2.72
2019-05-30T15:07:25.550Z,3.15
2019-05-30T15:12:34.963Z,2.92
2019-05-30T15:17:45.299Z,2.85
2019-05-30T15:22:52.001Z,2.98
2019-05-30T15:28:01.368Z,2.87
2019-05-30T15:33:10.326Z,3.20
2019-05-30T15:38:18.891Z,2.72
2019-05-30T15:43:28.996Z,2.70
2019-05-30T15:48:36.794Z,3.30
2019-05-30T15:53:44.697Z,3.45
2019-05-30T15:58:54.506Z,3.87
2019-05-30T16:04:03.477Z,4.33
2019-05-30T16:09:12.292Z,4.45
2019-05-30T16:14:21.571Z,4.12
2019-05-30T16:19:30.210Z,4.20
2019-05-30T16:24:38.059Z,3.80
2019-05-30T16:29:46.694Z,3.83
2019-05-30T16:34:56.316Z,4.67
2019-05-30T16:40:06.534Z,3.92
2019-05-30T16:45:20.314Z,4.37
2019-05-30T16:50:25.335Z,3.87
2019-05-30T16:55:33.381Z,4.17
2019-05-30T17:00:41.460Z,4.05
2019-05-30T17:05:49.648Z,4.10
2019-05-30T17:10:58.031Z,4.30
2019-05-30T17:16:07.243Z,4.15
2019-05-30T17:21:16.370Z,3.83
2019-05-30T17:26:25.352Z,4.85
2019-05-30T17:31:33.513Z,4.15
2019-05-30T17:36:41.642Z,4.15
2019-05-30T17:41:50.035Z,4.60
2019-05-30T17:46:59.601Z,5.42
2019-05-30T17:52:07.849Z,4.95
2019-05-30T17:57:16.758Z,4.80
2019-05-30T18:02:24.821Z,5.12
2019-05-30T18:07:32.910Z,5.42
2019-05-30T18:12:41.034Z,5.05
2019-05-30T18:17:48.983Z,5.35
2019-05-30T18:22:56.933Z,5.97
2019-05-30T18:28:05.498Z,5.55
2019-05-30T18:33:13.793Z,5.87
2019-05-30T18:38:22.261Z,6.40
2019-05-30T18:43:30.911Z,5.90
2019-05-30T18:48:38.934Z,5.30
2019-05-30T18:53:47.101Z,5.97
2019-05-30T18:58:55.418Z,5.53
2019-05-30T19:04:03.625Z,5.45
2019-05-30T19:09:11.952Z,5.70
2019-05-30T19:14:20.036Z,5.78
2019-05-30T19:19:29.595Z,5.80
2019-05-30T19:24:37.707Z,5.95
2019-05-30T19:29:45.795Z,6.03
2019-05-30T19:34:55.346Z,5.70
2019-05-30T19:40:03.365Z,5.95
2019-05-30T19:45:12.625Z,6.03
2019-05-30T19:50:20.929Z,5.83
2019-05-30T19:55:29.098Z,6.40
2019-05-30T20:00:54.479Z,5.47
2019-05-30T20:05:46.072Z,6.20
2019-05-30T20:10:54.264Z,6.50
2019-05-30T20:16:02.128Z,6.28
2019-05-30T20:21:10.239Z,6.10
2019-05-30T20:26:18.600Z,6.20
2019-05-30T20:31:26.962Z,6.87
2019-05-30T20:36:36.452Z,7.05
2019-05-30T20:41:44.627Z,6.37
2019-05-30T20:46:53.147Z,6.55
2019-05-30T20:52:01.056Z,6.30
2019-05-30T20:57:08.931Z,6.50
2019-05-30T21:02:16.895Z,6.95
2019-05-30T21:07:25.514Z,6.92
2019-05-30T21:12:39.281Z,7.50
2019-05-30T21:17:46.739Z,6.85
2019-05-30T21:22:55.035Z,6.90
2019-05-30T21:28:02.830Z,6.87
2019-05-30T21:33:10.672Z,6.80
2019-05-30T21:38:19.009Z,18.62
2019-05-30T21:43:26.875Z,33.10
2019-05-30T21:48:35.074Z,27.25
2019-05-30T21:53:43.517Z,43.30
2019-05-30T21:58:51.330Z,21.40
2019-05-30T22:03:59.259Z,9.85
2019-05-30T22:09:09.633Z,8.00
2019-05-30T22:14:17.305Z,9.17
2019-05-30T22:19:25.428Z,14.80
2019-05-30T22:24:33.269Z,9.10
2019-05-30T22:29:42.136Z,7.10
2019-05-30T22:34:50.840Z,6.47
2019-05-30T22:39:58.935Z,7.95
2019-05-30T22:45:08.400Z,7.90
2019-05-30T22:50:19.495Z,8.55
2019-05-30T22:55:27.573Z,8.40
2019-05-30T23:00:35.636Z,8.00
2019-05-30T23:05:45.150Z,8.00
2019-05-30T23:10:53.802Z,9.18
2019-05-30T23:16:01.552Z,11.05
2019-05-30T23:21:09.814Z,11.65
2019-05-30T23:26:19.327Z,10.78
2019-05-30T23:31:29.458Z,10.60
2019-05-30T23:36:37.312Z,9.35
2019-05-30T23:41:48.931Z,9.23
2019-05-30T23:46:59.768Z,9.23
2019-05-30T23:52:08.191Z,9.83
2019-05-30T23:57:16.802Z,10.55
